sensor_id;sensor_type;location;lat;lon;timestamp;temperature;humidity
7704;DHT22;3894;49.700;10.770;2023-08-07T00:00:23;12.20;99.90
7704;DHT22;3894;49.700;10.770;2023-08-07T00:02:48;12.20;99.90
7704;DHT22;3894;49.700;10.770;2023-08-07T00:05:15;12.20;99.90
7704;DHT22;3894;49.700;10.770;2023-08-07T00:07:42;12.20;99.90
7704;DHT22;3894;49.700;10.770;2023-08-07T00:10:08;12.20;99.90
7704;DHT22;3894;49.700;10.770;2023-08-07T00:12:34;12.20;99.90
7704;DHT22;3894;49.700;10.770;2023-08-07T00:15:00;12.20;99.90
7704;DHT22;3894;49.700;10.770;2023-08-07T00:17:26;12.20;99.90
7704;DHT22;3894;49.700;10.770;2023-08-07T00:19:51;12.20;99.90
7704;DHT22;3894;49.700;10.770;2023-08-07T00:22:17;12.20;99.90
7704;DHT22;3894;49.700;10.770;2023-08-07T00:24:43;12.20;99.90
7704;DHT22;3894;49.700;10.770;2023-08-07T00:27:08;12.20;99.90
7704;DHT22;3894;49.700;10.770;2023-08-07T00:29:38;12.20;99.90
7704;DHT22;3894;49.700;10.770;2023-08-07T00:32:04;12.20;99.90
7704;DHT22;3894;49.700;10.770;2023-08-07T00:34:29;12.20;99.90
7704;DHT22;3894;49.700;10.770;2023-08-07T00:36:55;12.20;99.90
7704;DHT22;3894;49.700;10.770;2023-08-07T00:39:20;12.20;99.90
7704;DHT22;3894;49.700;10.770;2023-08-07T00:41:46;12.20;99.90
7704;DHT22;3894;49.700;10.770;2023-08-07T00:44:12;12.20;99.90
7704;DHT22;3894;49.700;10.770;2023-08-07T00:46:38;12.20;99.90
7704;DHT22;3894;49.700;10.770;2023-08-07T00:49:07;12.20;99.90
7704;DHT22;3894;49.700;10.770;2023-08-07T00:51:35;12.10;99.90
7704;DHT22;3894;49.700;10.770;2023-08-07T00:54:03;12.10;99.90
7704;DHT22;3894;49.700;10.770;2023-08-07T00:56:30;12.10;99.90
7704;DHT22;3894;49.700;10.770;2023-08-07T00:58:58;12.10;99.90
7704;DHT22;3894;49.700;10.770;2023-08-07T01:01:24;12.10;99.90
7704;DHT22;3894;49.700;10.770;2023-08-07T01:03:51;12.10;99.90
7704;DHT22;3894;49.700;10.770;2023-08-07T01:06:16;12.10;99.90
7704;DHT22;3894;49.700;10.770;2023-08-07T01:08:42;12.10;99.90
7704;DHT22;3894;49.700;10.770;2023-08-07T01:11:50;12.10;99.90
7704;DHT22;3894;49.700;10.770;2023-08-07T01:17:23;12.10;99.90
7704;DHT22;3894;49.700;10.770;2023-08-07T01:19:53;12.10;99.90
7704;DHT22;3894;49.700;10.770;2023-08-07T01:22:20;12.10;99.90
7704;DHT22;3894;49.700;10.770;2023-08-07T01:24:48;12.10;99.90
7704;DHT22;3894;49.700;10.770;2023-08-07T01:33:16;12.00;99.90
7704;DHT22;3894;49.700;10.770;2023-08-07T01:35:47;12.00;99.90
7704;DHT22;3894;49.700;10.770;2023-08-07T01:38:15;12.00;99.90
7704;DHT22;3894;49.700;10.770;2023-08-07T01:40:42;12.00;99.90
7704;DHT22;3894;49.700;10.770;2023-08-07T01:43:08;12.00;99.90
7704;DHT22;3894;49.700;10.770;2023-08-07T01:45:34;12.00;99.90
7704;DHT22;3894;49.700;10.770;2023-08-07T01:48:00;12.00;99.90
7704;DHT22;3894;49.700;10.770;2023-08-07T01:50:26;12.00;99.90
7704;DHT22;3894;49.700;10.770;2023-08-07T01:52:51;12.00;99.90
7704;DHT22;3894;49.700;10.770;2023-08-07T01:55:18;12.00;99.90
7704;DHT22;3894;49.700;10.770;2023-08-07T01:57:44;11.90;99.90
7704;DHT22;3894;49.700;10.770;2023-08-07T02:00:10;11.90;99.90
7704;DHT22;3894;49.700;10.770;2023-08-07T02:02:36;11.90;99.90
7704;DHT22;3894;49.700;10.770;2023-08-07T02:05:03;11.90;99.90
7704;DHT22;3894;49.700;10.770;2023-08-07T02:07:29;11.90;99.90
7704;DHT22;3894;49.700;10.770;2023-08-07T02:09:55;11.90;99.90
7704;DHT22;3894;49.700;10.770;2023-08-07T02:12:21;11.90;99.90
7704;DHT22;3894;49.700;10.770;2023-08-07T02:14:46;11.90;99.90
7704;DHT22;3894;49.700;10.770;2023-08-07T02:17:12;11.90;99.90
7704;DHT22;3894;49.700;10.770;2023-08-07T02:19:37;11.90;99.90
7704;DHT22;3894;49.700;10.770;2023-08-07T02:22:03;11.90;99.90
7704;DHT22;3894;49.700;10.770;2023-08-07T02:24:29;11.80;99.90
7704;DHT22;3894;49.700;10.770;2023-08-07T02:26:54;11.80;99.90
7704;DHT22;3894;49.700;10.770;2023-08-07T02:29:20;11.80;99.90
7704;DHT22;3894;49.700;10.770;2023-08-07T02:31:45;11.80;99.90
7704;DHT22;3894;49.700;10.770;2023-08-07T02:34:12;11.80;99.90
7704;DHT22;3894;49.700;10.770;2023-08-07T02:36:38;11.80;99.90
7704;DHT22;3894;49.700;10.770;2023-08-07T02:39:04;11.70;99.90
7704;DHT22;3894;49.700;10.770;2023-08-07T02:41:29;11.80;99.90
7704;DHT22;3894;49.700;10.770;2023-08-07T02:43:56;11.80;99.90
7704;DHT22;3894;49.700;10.770;2023-08-07T02:46:22;11.70;99.90
7704;DHT22;3894;49.700;10.770;2023-08-07T02:48:47;11.80;99.90
7704;DHT22;3894;49.700;10.770;2023-08-07T02:51:13;11.70;99.90
7704;DHT22;3894;49.700;10.770;2023-08-07T02:53:38;11.70;99.90
7704;DHT22;3894;49.700;10.770;2023-08-07T02:56:04;11.70;99.90
7704;DHT22;3894;49.700;10.770;2023-08-07T02:58:29;11.70;99.90
7704;DHT22;3894;49.700;10.770;2023-08-07T03:00:56;11.70;99.90
7704;DHT22;3894;49.700;10.770;2023-08-07T03:03:22;11.70;99.90
7704;DHT22;3894;49.700;10.770;2023-08-07T03:05:51;11.70;99.90
7704;DHT22;3894;49.700;10.770;2023-08-07T03:08:17;11.70;99.90
7704;DHT22;3894;49.700;10.770;2023-08-07T03:10:53;11.70;99.90
7704;DHT22;3894;49.700;10.770;2023-08-07T03:13:19;11.70;99.90
7704;DHT22;3894;49.700;10.770;2023-08-07T03:15:45;11.60;99.90
7704;DHT22;3894;49.700;10.770;2023-08-07T03:18:10;11.60;99.90
7704;DHT22;3894;49.700;10.770;2023-08-07T03:20:37;11.60;99.90
7704;DHT22;3894;49.700;10.770;2023-08-07T03:23:03;11.60;99.90
7704;DHT22;3894;49.700;10.770;2023-08-07T03:25:28;11.60;99.90
7704;DHT22;3894;49.700;10.770;2023-08-07T03:27:54;11.60;99.90
7704;DHT22;3894;49.700;10.770;2023-08-07T03:30:19;11.60;99.90
7704;DHT22;3894;49.700;10.770;2023-08-07T03:32:45;11.60;99.90
7704;DHT22;3894;49.700;10.770;2023-08-07T03:35:10;11.60;99.90
7704;DHT22;3894;49.700;10.770;2023-08-07T03:37:36;11.60;99.90
7704;DHT22;3894;49.700;10.770;2023-08-07T03:40:02;11.60;99.90
7704;DHT22;3894;49.700;10.770;2023-08-07T03:42:28;11.60;99.90
7704;DHT22;3894;49.700;10.770;2023-08-07T03:44:53;11.50;99.90
7704;DHT22;3894;49.700;10.770;2023-08-07T03:47:19;11.50;99.90
7704;DHT22;3894;49.700;10.770;2023-08-07T03:49:44;11.50;99.90
7704;DHT22;3894;49.700;10.770;2023-08-07T03:52:10;11.50;99.90
7704;DHT22;3894;49.700;10.770;2023-08-07T03:54:35;11.50;99.90
7704;DHT22;3894;49.700;10.770;2023-08-07T03:57:01;11.50;99.90
7704;DHT22;3894;49.700;10.770;2023-08-07T03:59:27;11.50;99.90
7704;DHT22;3894;49.700;10.770;2023-08-07T04:01:53;11.50;99.90
7704;DHT22;3894;49.700;10.770;2023-08-07T04:04:18;11.50;99.90
7704;DHT22;3894;49.700;10.770;2023-08-07T04:06:44;11.50;99.90
7704;DHT22;3894;49.700;10.770;2023-08-07T04:09:09;11.50;99.90
7704;DHT22;3894;49.700;10.770;2023-08-07T04:11:36;11.50;99.90
7704;DHT22;3894;49.700;10.770;2023-08-07T04:14:01;11.50;99.90
7704;DHT22;3894;49.700;10.770;2023-08-07T04:16:27;11.50;99.90
7704;DHT22;3894;49.700;10.770;2023-08-07T04:18:54;11.50;99.90
7704;DHT22;3894;49.700;10.770;2023-08-07T04:21:19;11.50;99.90
7704;DHT22;3894;49.700;10.770;2023-08-07T04:23:45;11.50;99.90
7704;DHT22;3894;49.700;10.770;2023-08-07T04:26:10;11.40;99.90
7704;DHT22;3894;49.700;10.770;2023-08-07T04:28:36;11.40;99.90
7704;DHT22;3894;49.700;10.770;2023-08-07T04:31:01;11.40;99.90
7704;DHT22;3894;49.700;10.770;2023-08-07T04:33:28;11.40;99.90
7704;DHT22;3894;49.700;10.770;2023-08-07T04:35:54;11.40;99.90
7704;DHT22;3894;49.700;10.770;2023-08-07T04:38:20;11.40;99.90
7704;DHT22;3894;49.700;10.770;2023-08-07T04:40:49;11.40;99.90
7704;DHT22;3894;49.700;10.770;2023-08-07T04:43:16;11.40;99.90
7704;DHT22;3894;49.700;10.770;2023-08-07T04:45:42;11.40;99.90
7704;DHT22;3894;49.700;10.770;2023-08-07T04:48:10;11.40;99.90
7704;DHT22;3894;49.700;10.770;2023-08-07T04:50:37;11.40;99.90
7704;DHT22;3894;49.700;10.770;2023-08-07T04:53:04;11.40;99.90
7704;DHT22;3894;49.700;10.770;2023-08-07T04:55:31;11.40;99.90
7704;DHT22;3894;49.700;10.770;2023-08-07T04:57:57;11.50;99.90
7704;DHT22;3894;49.700;10.770;2023-08-07T05:00:23;11.40;99.90
7704;DHT22;3894;49.700;10.770;2023-08-07T05:02:48;11.40;99.90
7704;DHT22;3894;49.700;10.770;2023-08-07T05:05:15;11.40;99.90
7704;DHT22;3894;49.700;10.770;2023-08-07T05:07:41;11.40;99.90
7704;DHT22;3894;49.700;10.770;2023-08-07T05:10:07;11.40;99.90
7704;DHT22;3894;49.700;10.770;2023-08-07T05:12:33;11.40;99.90
7704;DHT22;3894;49.700;10.770;2023-08-07T05:14:58;11.40;99.90
7704;DHT22;3894;49.700;10.770;2023-08-07T05:17:24;11.40;99.90
7704;DHT22;3894;49.700;10.770;2023-08-07T05:19:49;11.40;99.90
7704;DHT22;3894;49.700;10.770;2023-08-07T05:22:15;11.40;99.90
7704;DHT22;3894;49.700;10.770;2023-08-07T05:24:41;11.40;99.90
7704;DHT22;3894;49.700;10.770;2023-08-07T05:27:08;11.40;99.90
7704;DHT22;3894;49.700;10.770;2023-08-07T05:29:34;11.40;99.90
7704;DHT22;3894;49.700;10.770;2023-08-07T05:32:00;11.40;99.90
7704;DHT22;3894;49.700;10.770;2023-08-07T05:34:25;11.40;99.90
7704;DHT22;3894;49.700;10.770;2023-08-07T05:36:51;11.40;99.90
7704;DHT22;3894;49.700;10.770;2023-08-07T05:39:16;11.40;99.90
7704;DHT22;3894;49.700;10.770;2023-08-07T05:41:43;11.40;99.90
7704;DHT22;3894;49.700;10.770;2023-08-07T05:44:08;11.40;99.90
7704;DHT22;3894;49.700;10.770;2023-08-07T05:46:34;11.40;99.90
7704;DHT22;3894;49.700;10.770;2023-08-07T05:48:59;11.40;99.90
7704;DHT22;3894;49.700;10.770;2023-08-07T05:51:25;11.40;99.90
7704;DHT22;3894;49.700;10.770;2023-08-07T05:53:50;11.40;99.90
7704;DHT22;3894;49.700;10.770;2023-08-07T05:56:16;11.30;99.90
7704;DHT22;3894;49.700;10.770;2023-08-07T05:58:43;11.30;99.90
7704;DHT22;3894;49.700;10.770;2023-08-07T06:01:08;11.30;99.90
7704;DHT22;3894;49.700;10.770;2023-08-07T06:03:34;11.30;99.90
7704;DHT22;3894;49.700;10.770;2023-08-07T06:06:00;11.30;99.90
7704;DHT22;3894;49.700;10.770;2023-08-07T06:08:26;11.30;99.90
7704;DHT22;3894;49.700;10.770;2023-08-07T06:10:51;11.30;99.90
7704;DHT22;3894;49.700;10.770;2023-08-07T06:13:17;11.30;99.90
7704;DHT22;3894;49.700;10.770;2023-08-07T06:15:42;11.30;99.90
7704;DHT22;3894;49.700;10.770;2023-08-07T06:18:08;11.30;99.90
7704;DHT22;3894;49.700;10.770;2023-08-07T06:20:34;11.30;99.90
7704;DHT22;3894;49.700;10.770;2023-08-07T06:22:59;11.30;99.90
7704;DHT22;3894;49.700;10.770;2023-08-07T06:25:25;11.30;99.90
7704;DHT22;3894;49.700;10.770;2023-08-07T06:27:51;11.30;99.90
7704;DHT22;3894;49.700;10.770;2023-08-07T06:30:17;11.40;99.90
7704;DHT22;3894;49.700;10.770;2023-08-07T06:32:42;11.30;99.90
7704;DHT22;3894;49.700;10.770;2023-08-07T06:35:08;11.30;99.90
7704;DHT22;3894;49.700;10.770;2023-08-07T06:37:34;11.30;99.90
7704;DHT22;3894;49.700;10.770;2023-08-07T06:39:59;11.40;99.90
7704;DHT22;3894;49.700;10.770;2023-08-07T06:42:25;11.40;99.90
7704;DHT22;3894;49.700;10.770;2023-08-07T06:44:50;11.30;99.90
7704;DHT22;3894;49.700;10.770;2023-08-07T06:47:17;11.40;99.90
7704;DHT22;3894;49.700;10.770;2023-08-07T06:49:43;11.40;99.90
7704;DHT22;3894;49.700;10.770;2023-08-07T06:52:09;11.40;99.90
7704;DHT22;3894;49.700;10.770;2023-08-07T06:54:34;11.40;99.90
7704;DHT22;3894;49.700;10.770;2023-08-07T06:57:00;11.40;99.90
7704;DHT22;3894;49.700;10.770;2023-08-07T06:59:25;11.40;99.90
7704;DHT22;3894;49.700;10.770;2023-08-07T07:01:51;11.40;99.90
7704;DHT22;3894;49.700;10.770;2023-08-07T07:04:17;11.40;99.90
7704;DHT22;3894;49.700;10.770;2023-08-07T07:06:43;11.40;99.90
7704;DHT22;3894;49.700;10.770;2023-08-07T07:09:09;11.50;99.90
7704;DHT22;3894;49.700;10.770;2023-08-07T07:11:34;11.40;99.90
7704;DHT22;3894;49.700;10.770;2023-08-07T07:14:00;11.50;99.90
7704;DHT22;3894;49.700;10.770;2023-08-07T07:16:26;11.50;99.90
7704;DHT22;3894;49.700;10.770;2023-08-07T07:18:51;11.50;99.90
7704;DHT22;3894;49.700;10.770;2023-08-07T07:21:18;11.50;99.90
7704;DHT22;3894;49.700;10.770;2023-08-07T07:23:43;11.60;99.90
7704;DHT22;3894;49.700;10.770;2023-08-07T07:26:09;11.60;99.90
7704;DHT22;3894;49.700;10.770;2023-08-07T07:28:35;11.70;99.90
7704;DHT22;3894;49.700;10.770;2023-08-07T07:31:00;11.80;99.90
7704;DHT22;3894;49.700;10.770;2023-08-07T07:33:26;11.80;99.90
7704;DHT22;3894;49.700;10.770;2023-08-07T07:35:52;11.90;99.90
7704;DHT22;3894;49.700;10.770;2023-08-07T07:38:17;11.90;99.90
7704;DHT22;3894;49.700;10.770;2023-08-07T07:40:43;11.90;99.90
7704;DHT22;3894;49.700;10.770;2023-08-07T07:43:08;11.90;99.90
7704;DHT22;3894;49.700;10.770;2023-08-07T07:45:34;11.90;99.90
7704;DHT22;3894;49.700;10.770;2023-08-07T07:48:04;11.90;99.90
7704;DHT22;3894;49.700;10.770;2023-08-07T07:50:32;11.90;99.90
7704;DHT22;3894;49.700;10.770;2023-08-07T07:52:57;11.90;99.90
7704;DHT22;3894;49.700;10.770;2023-08-07T07:55:24;11.90;99.90
7704;DHT22;3894;49.700;10.770;2023-08-07T07:57:49;11.90;99.90
7704;DHT22;3894;49.700;10.770;2023-08-07T08:00:16;12.00;99.90
7704;DHT22;3894;49.700;10.770;2023-08-07T08:02:41;12.00;99.90
7704;DHT22;3894;49.700;10.770;2023-08-07T08:05:08;12.10;99.90
7704;DHT22;3894;49.700;10.770;2023-08-07T08:07:36;12.10;99.90
7704;DHT22;3894;49.700;10.770;2023-08-07T08:10:02;12.20;99.90
7704;DHT22;3894;49.700;10.770;2023-08-07T08:12:30;12.10;99.90
7704;DHT22;3894;49.700;10.770;2023-08-07T08:14:55;12.10;99.90
7704;DHT22;3894;49.700;10.770;2023-08-07T08:17:23;12.10;99.90
7704;DHT22;3894;49.700;10.770;2023-08-07T08:19:49;12.10;99.90
7704;DHT22;3894;49.700;10.770;2023-08-07T08:22:15;12.10;99.90
7704;DHT22;3894;49.700;10.770;2023-08-07T08:24:41;12.10;99.90
7704;DHT22;3894;49.700;10.770;2023-08-07T08:27:06;12.10;99.90
7704;DHT22;3894;49.700;10.770;2023-08-07T08:29:32;12.10;99.90
7704;DHT22;3894;49.700;10.770;2023-08-07T08:31:58;12.10;99.90
7704;DHT22;3894;49.700;10.770;2023-08-07T08:34:26;12.10;99.90
7704;DHT22;3894;49.700;10.770;2023-08-07T08:36:52;12.10;99.90
7704;DHT22;3894;49.700;10.770;2023-08-07T08:39:18;12.10;99.90
7704;DHT22;3894;49.700;10.770;2023-08-07T08:41:46;12.10;99.90
7704;DHT22;3894;49.700;10.770;2023-08-07T08:44:14;12.10;99.90
7704;DHT22;3894;49.700;10.770;2023-08-07T08:46:42;12.10;99.90
7704;DHT22;3894;49.700;10.770;2023-08-07T08:49:08;12.10;99.90
7704;DHT22;3894;49.700;10.770;2023-08-07T08:51:36;12.10;99.90
7704;DHT22;3894;49.700;10.770;2023-08-07T08:54:02;12.10;99.90
7704;DHT22;3894;49.700;10.770;2023-08-07T08:56:29;12.10;99.90
7704;DHT22;3894;49.700;10.770;2023-08-07T08:58:56;12.10;99.90
7704;DHT22;3894;49.700;10.770;2023-08-07T09:01:21;12.10;99.90
7704;DHT22;3894;49.700;10.770;2023-08-07T09:03:48;12.10;99.90
7704;DHT22;3894;49.700;10.770;2023-08-07T09:06:14;12.20;99.90
7704;DHT22;3894;49.700;10.770;2023-08-07T09:08:44;12.20;99.90
7704;DHT22;3894;49.700;10.770;2023-08-07T09:11:10;12.10;99.90
7704;DHT22;3894;49.700;10.770;2023-08-07T09:13:38;12.10;99.90
7704;DHT22;3894;49.700;10.770;2023-08-07T09:16:07;12.10;99.90
7704;DHT22;3894;49.700;10.770;2023-08-07T09:18:34;12.10;99.90
7704;DHT22;3894;49.700;10.770;2023-08-07T09:21:00;12.10;99.90
7704;DHT22;3894;49.700;10.770;2023-08-07T09:23:26;12.10;99.90
7704;DHT22;3894;49.700;10.770;2023-08-07T09:26:00;12.20;99.90
7704;DHT22;3894;49.700;10.770;2023-08-07T09:28:26;12.20;99.90
7704;DHT22;3894;49.700;10.770;2023-08-07T09:30:52;12.20;99.90
7704;DHT22;3894;49.700;10.770;2023-08-07T09:33:28;12.30;99.90
7704;DHT22;3894;49.700;10.770;2023-08-07T09:36:01;12.30;99.90
7704;DHT22;3894;49.700;10.770;2023-08-07T09:38:31;12.40;99.90
7704;DHT22;3894;49.700;10.770;2023-08-07T09:41:02;12.50;99.90
7704;DHT22;3894;49.700;10.770;2023-08-07T09:43:35;12.50;99.90
7704;DHT22;3894;49.700;10.770;2023-08-07T09:46:05;12.50;99.90
7704;DHT22;3894;49.700;10.770;2023-08-07T09:48:31;12.40;99.90
7704;DHT22;3894;49.700;10.770;2023-08-07T09:51:03;12.50;99.90
7704;DHT22;3894;49.700;10.770;2023-08-07T09:53:36;12.50;99.90
7704;DHT22;3894;49.700;10.770;2023-08-07T09:56:02;12.50;99.90
7704;DHT22;3894;49.700;10.770;2023-08-07T09:58:29;12.70;99.90
7704;DHT22;3894;49.700;10.770;2023-08-07T10:00:55;12.80;99.90
7704;DHT22;3894;49.700;10.770;2023-08-07T10:03:27;12.80;99.90
7704;DHT22;3894;49.700;10.770;2023-08-07T10:05:54;12.80;99.90
7704;DHT22;3894;49.700;10.770;2023-08-07T10:08:21;12.80;99.90
7704;DHT22;3894;49.700;10.770;2023-08-07T10:10:47;12.80;99.90
7704;DHT22;3894;49.700;10.770;2023-08-07T10:13:14;12.90;99.90
7704;DHT22;3894;49.700;10.770;2023-08-07T10:15:40;12.90;99.90
7704;DHT22;3894;49.700;10.770;2023-08-07T10:18:08;12.90;99.90
7704;DHT22;3894;49.700;10.770;2023-08-07T10:20:34;13.00;99.90
7704;DHT22;3894;49.700;10.770;2023-08-07T10:23:10;13.10;99.90
7704;DHT22;3894;49.700;10.770;2023-08-07T10:25:38;13.10;99.90
7704;DHT22;3894;49.700;10.770;2023-08-07T10:28:06;13.10;99.90
7704;DHT22;3894;49.700;10.770;2023-08-07T10:30:34;13.20;99.90
7704;DHT22;3894;49.700;10.770;2023-08-07T10:33:01;13.20;99.90
7704;DHT22;3894;49.700;10.770;2023-08-07T10:35:31;13.20;99.90
7704;DHT22;3894;49.700;10.770;2023-08-07T10:38:07;13.10;99.90
7704;DHT22;3894;49.700;10.770;2023-08-07T10:40:33;13.10;99.90
7704;DHT22;3894;49.700;10.770;2023-08-07T10:43:11;13.10;99.90
7704;DHT22;3894;49.700;10.770;2023-08-07T10:45:37;13.20;99.90
7704;DHT22;3894;49.700;10.770;2023-08-07T10:48:07;13.10;99.90
7704;DHT22;3894;49.700;10.770;2023-08-07T10:50:35;13.10;99.90
7704;DHT22;3894;49.700;10.770;2023-08-07T10:53:02;13.20;99.90
7704;DHT22;3894;49.700;10.770;2023-08-07T10:55:42;13.20;99.90
7704;DHT22;3894;49.700;10.770;2023-08-07T10:58:29;13.30;99.90
7704;DHT22;3894;49.700;10.770;2023-08-07T11:01:21;13.30;99.90
7704;DHT22;3894;49.700;10.770;2023-08-07T11:03:53;13.40;99.90
7704;DHT22;3894;49.700;10.770;2023-08-07T11:06:28;13.30;99.90
7704;DHT22;3894;49.700;10.770;2023-08-07T11:08:54;13.30;99.90
7704;DHT22;3894;49.700;10.770;2023-08-07T11:11:20;13.30;99.90
7704;DHT22;3894;49.700;10.770;2023-08-07T11:13:46;13.40;99.90
7704;DHT22;3894;49.700;10.770;2023-08-07T11:16:12;13.40;99.90
7704;DHT22;3894;49.700;10.770;2023-08-07T11:18:38;13.40;99.90
7704;DHT22;3894;49.700;10.770;2023-08-07T11:21:10;13.50;99.90
7704;DHT22;3894;49.700;10.770;2023-08-07T11:23:37;13.50;99.90
7704;DHT22;3894;49.700;10.770;2023-08-07T11:26:03;13.60;99.90
7704;DHT22;3894;49.700;10.770;2023-08-07T11:28:29;13.60;99.90
7704;DHT22;3894;49.700;10.770;2023-08-07T11:30:54;13.70;99.90
7704;DHT22;3894;49.700;10.770;2023-08-07T11:33:25;13.60;99.90
7704;DHT22;3894;49.700;10.770;2023-08-07T11:35:51;13.70;99.90
7704;DHT22;3894;49.700;10.770;2023-08-07T11:38:31;13.80;99.90
7704;DHT22;3894;49.700;10.770;2023-08-07T11:40:58;13.90;99.90
7704;DHT22;3894;49.700;10.770;2023-08-07T11:43:24;14.00;99.90
7704;DHT22;3894;49.700;10.770;2023-08-07T11:45:50;14.00;99.90
7704;DHT22;3894;49.700;10.770;2023-08-07T11:48:16;14.00;99.90
7704;DHT22;3894;49.700;10.770;2023-08-07T11:50:42;14.00;99.90
7704;DHT22;3894;49.700;10.770;2023-08-07T11:53:08;14.00;99.90
7704;DHT22;3894;49.700;10.770;2023-08-07T11:55:34;13.90;99.90
7704;DHT22;3894;49.700;10.770;2023-08-07T11:58:02;13.90;99.90
7704;DHT22;3894;49.700;10.770;2023-08-07T12:00:29;13.80;99.90
7704;DHT22;3894;49.700;10.770;2023-08-07T12:02:54;13.70;99.90
7704;DHT22;3894;49.700;10.770;2023-08-07T12:05:20;13.70;99.90
7704;DHT22;3894;49.700;10.770;2023-08-07T12:07:47;13.80;99.90
7704;DHT22;3894;49.700;10.770;2023-08-07T12:10:13;13.70;99.90
7704;DHT22;3894;49.700;10.770;2023-08-07T12:12:39;13.60;99.90
7704;DHT22;3894;49.700;10.770;2023-08-07T12:15:08;13.50;99.90
7704;DHT22;3894;49.700;10.770;2023-08-07T12:17:35;13.40;99.90
7704;DHT22;3894;49.700;10.770;2023-08-07T12:20:03;13.40;99.90
7704;DHT22;3894;49.700;10.770;2023-08-07T12:22:29;13.40;99.90
7704;DHT22;3894;49.700;10.770;2023-08-07T12:24:55;13.50;99.90
7704;DHT22;3894;49.700;10.770;2023-08-07T12:27:20;13.60;99.90
7704;DHT22;3894;49.700;10.770;2023-08-07T12:29:46;13.70;99.90
7704;DHT22;3894;49.700;10.770;2023-08-07T12:32:13;13.70;99.90
7704;DHT22;3894;49.700;10.770;2023-08-07T12:34:38;13.70;99.90
7704;DHT22;3894;49.700;10.770;2023-08-07T12:37:04;13.50;99.90
7704;DHT22;3894;49.700;10.770;2023-08-07T12:39:30;13.30;99.90
7704;DHT22;3894;49.700;10.770;2023-08-07T12:41:56;13.20;99.90
7704;DHT22;3894;49.700;10.770;2023-08-07T12:44:23;13.20;99.90
7704;DHT22;3894;49.700;10.770;2023-08-07T12:46:49;13.20;99.90
7704;DHT22;3894;49.700;10.770;2023-08-07T12:49:15;13.10;99.90
7704;DHT22;3894;49.700;10.770;2023-08-07T12:51:40;13.10;99.90
7704;DHT22;3894;49.700;10.770;2023-08-07T12:54:06;13.00;99.90
7704;DHT22;3894;49.700;10.770;2023-08-07T12:56:32;13.00;99.90
7704;DHT22;3894;49.700;10.770;2023-08-07T12:58:57;13.00;99.90
7704;DHT22;3894;49.700;10.770;2023-08-07T13:01:23;13.00;99.90
7704;DHT22;3894;49.700;10.770;2023-08-07T13:03:48;12.90;99.90
7704;DHT22;3894;49.700;10.770;2023-08-07T13:06:14;12.90;99.90
7704;DHT22;3894;49.700;10.770;2023-08-07T13:08:39;12.90;99.90
7704;DHT22;3894;49.700;10.770;2023-08-07T13:11:06;12.90;99.90
7704;DHT22;3894;49.700;10.770;2023-08-07T13:13:31;13.00;99.90
7704;DHT22;3894;49.700;10.770;2023-08-07T13:15:57;13.00;99.90
7704;DHT22;3894;49.700;10.770;2023-08-07T13:18:23;13.00;99.90
7704;DHT22;3894;49.700;10.770;2023-08-07T13:20:49;13.00;99.90
7704;DHT22;3894;49.700;10.770;2023-08-07T13:23:15;13.00;99.90
7704;DHT22;3894;49.700;10.770;2023-08-07T13:25:40;13.00;99.90
7704;DHT22;3894;49.700;10.770;2023-08-07T13:28:06;13.10;99.90
7704;DHT22;3894;49.700;10.770;2023-08-07T13:30:35;13.10;99.90
7704;DHT22;3894;49.700;10.770;2023-08-07T13:33:01;13.10;99.90
7704;DHT22;3894;49.700;10.770;2023-08-07T13:35:26;13.10;99.90
7704;DHT22;3894;49.700;10.770;2023-08-07T13:37:52;13.10;99.90
7704;DHT22;3894;49.700;10.770;2023-08-07T13:40:18;13.10;99.90
7704;DHT22;3894;49.700;10.770;2023-08-07T13:42:45;13.10;99.90
7704;DHT22;3894;49.700;10.770;2023-08-07T13:45:12;13.10;99.90
7704;DHT22;3894;49.700;10.770;2023-08-07T13:47:39;13.10;99.90
7704;DHT22;3894;49.700;10.770;2023-08-07T13:50:05;13.10;99.90
7704;DHT22;3894;49.700;10.770;2023-08-07T13:52:31;13.10;99.90
7704;DHT22;3894;49.700;10.770;2023-08-07T13:54:56;13.10;99.90
7704;DHT22;3894;49.700;10.770;2023-08-07T13:57:22;13.10;99.90
7704;DHT22;3894;49.700;10.770;2023-08-07T13:59:47;13.10;99.90
7704;DHT22;3894;49.700;10.770;2023-08-07T14:02:13;13.10;99.90
7704;DHT22;3894;49.700;10.770;2023-08-07T14:04:39;13.10;99.90
7704;DHT22;3894;49.700;10.770;2023-08-07T14:07:05;13.10;99.90
7704;DHT22;3894;49.700;10.770;2023-08-07T14:09:30;13.20;99.90
7704;DHT22;3894;49.700;10.770;2023-08-07T14:11:56;13.20;99.90
7704;DHT22;3894;49.700;10.770;2023-08-07T14:14:22;13.20;99.90
7704;DHT22;3894;49.700;10.770;2023-08-07T14:16:48;13.20;99.90
7704;DHT22;3894;49.700;10.770;2023-08-07T14:19:13;13.20;99.90
7704;DHT22;3894;49.700;10.770;2023-08-07T14:21:39;13.30;99.90
7704;DHT22;3894;49.700;10.770;2023-08-07T14:24:05;13.30;99.90
7704;DHT22;3894;49.700;10.770;2023-08-07T14:26:31;13.30;99.90
7704;DHT22;3894;49.700;10.770;2023-08-07T14:28:57;13.30;99.90
7704;DHT22;3894;49.700;10.770;2023-08-07T14:31:22;13.40;99.90
7704;DHT22;3894;49.700;10.770;2023-08-07T14:33:48;13.40;99.90
7704;DHT22;3894;49.700;10.770;2023-08-07T14:36:13;13.40;99.90
7704;DHT22;3894;49.700;10.770;2023-08-07T14:38:40;13.50;99.90
7704;DHT22;3894;49.700;10.770;2023-08-07T14:41:06;13.60;99.90
7704;DHT22;3894;49.700;10.770;2023-08-07T14:43:31;13.60;99.90
7704;DHT22;3894;49.700;10.770;2023-08-07T14:45:58;13.70;99.90
7704;DHT22;3894;49.700;10.770;2023-08-07T14:48:23;13.70;99.90
7704;DHT22;3894;49.700;10.770;2023-08-07T14:50:49;13.70;99.90
7704;DHT22;3894;49.700;10.770;2023-08-07T14:53:15;13.90;99.90
7704;DHT22;3894;49.700;10.770;2023-08-07T14:55:40;13.90;99.90
7704;DHT22;3894;49.700;10.770;2023-08-07T14:58:07;14.10;99.90
7704;DHT22;3894;49.700;10.770;2023-08-07T15:00:34;14.10;99.90
7704;DHT22;3894;49.700;10.770;2023-08-07T15:02:59;14.20;99.90
7704;DHT22;3894;49.700;10.770;2023-08-07T15:05:25;14.30;99.90
7704;DHT22;3894;49.700;10.770;2023-08-07T15:07:51;14.40;99.90
7704;DHT22;3894;49.700;10.770;2023-08-07T15:10:17;14.60;99.90
7704;DHT22;3894;49.700;10.770;2023-08-07T15:12:42;14.80;99.90
7704;DHT22;3894;49.700;10.770;2023-08-07T15:15:08;14.90;99.90
7704;DHT22;3894;49.700;10.770;2023-08-07T15:17:34;15.00;99.90
7704;DHT22;3894;49.700;10.770;2023-08-07T15:19:59;15.00;99.90
7704;DHT22;3894;49.700;10.770;2023-08-07T15:22:25;15.10;99.90
7704;DHT22;3894;49.700;10.770;2023-08-07T15:24:51;15.00;99.90
7704;DHT22;3894;49.700;10.770;2023-08-07T15:27:16;15.00;99.90
7704;DHT22;3894;49.700;10.770;2023-08-07T15:29:44;15.20;99.90
7704;DHT22;3894;49.700;10.770;2023-08-07T15:32:11;15.20;99.90
7704;DHT22;3894;49.700;10.770;2023-08-07T15:34:39;15.30;99.90
7704;DHT22;3894;49.700;10.770;2023-08-07T15:37:04;15.40;99.90
7704;DHT22;3894;49.700;10.770;2023-08-07T15:39:30;15.40;99.90
7704;DHT22;3894;49.700;10.770;2023-08-07T15:41:55;15.40;99.90
7704;DHT22;3894;49.700;10.770;2023-08-07T15:44:22;15.50;99.90
7704;DHT22;3894;49.700;10.770;2023-08-07T15:46:47;15.60;99.90
7704;DHT22;3894;49.700;10.770;2023-08-07T15:49:13;15.70;99.90